Time;durP1;ratioP1;P1;durP2;ratioP2;P2;SDS_P1;SDS_P2;PMS_P1;PMS_P2;Temp;Humidity;BMP_temperature;BMP_pressure;BME280_temperature;BME280_humidity;BME280_pressure;Samples;Min_cycle;Max_cycle;Signal;HPM_P1;HPM_P2
2021/12/19 00:09:59;;;;;;;2.53;1.57;;;;;;;6.20;100.00;102086.84;5013485;28;20448;-52
2021/12/19 00:12:26;;;;;;;0.20;0.20;;;;;;;6.28;100.00;102084.31;5013184;28;20453;-53
2021/12/19 00:14:52;;;;;;;0.30;0.30;;;;;;;6.20;100.00;102086.84;5012848;28;20523;-52
2021/12/19 00:17:19;;;;;;;0.20;0.17;;;;;;;6.17;100.00;102081.50;5013136;28;20942;-52
2021/12/19 00:19:46;;;;;;;0.30;0.20;;;;;;;6.27;100.00;102087.81;5013838;28;20449;-53
2021/12/19 00:22:13;;;;;;;0.20;0.20;;;;;;;6.32;100.00;102074.72;5013057;28;20457;-52
2021/12/19 00:24:39;;;;;;;0.20;0.20;;;;;;;6.35;100.00;102064.22;5011919;28;20468;-53
2021/12/19 00:27:06;;;;;;;2.53;2.33;;;;;;;6.35;100.00;102064.22;5012786;28;20485;-52
2021/12/19 00:29:32;;;;;;;0.20;0.20;;;;;;;6.20;100.00;102065.72;5013158;28;20506;-52
2021/12/19 00:31:59;;;;;;;0.20;0.20;;;;;;;6.15;100.00;102066.47;5012769;28;20489;-52
2021/12/19 00:34:26;;;;;;;0.20;0.10;;;;;;;6.06;100.00;102063.69;5012893;28;20503;-53
2021/12/19 00:36:53;;;;;;;0.20;0.20;;;;;;;5.92;100.00;102056.41;5013175;28;20967;-52
2021/12/19 00:39:19;;;;;;;0.20;0.20;;;;;;;5.95;100.00;102058.22;5012585;28;20448;-52
2021/12/19 00:41:52;;;;;;;0.20;0.20;;;;;;;6.11;100.00;102054.97;5013203;28;20452;-52
2021/12/19 00:44:24;;;;;;;0.20;0.13;;;;;;;6.04;100.00;102052.22;5012785;28;20460;-52
2021/12/19 00:47:03;;;;;;;0.20;0.10;;;;;;;6.13;100.00;102052.38;5012870;28;20535;-52
2021/12/19 00:49:31;;;;;;;0.43;0.43;;;;;;;6.06;100.00;102051.38;5012682;28;20543;-52
2021/12/19 00:51:58;;;;;;;0.20;0.20;;;;;;;5.97;100.00;102058.22;5012761;28;20452;-53
2021/12/19 00:54:24;;;;;;;0.20;0.10;;;;;;;5.96;100.00;102059.09;5012656;28;20456;-52
2021/12/19 00:56:51;;;;;;;0.20;0.10;;;;;;;5.91;100.00;102059.03;5012975;28;20481;-53
2021/12/19 00:59:18;;;;;;;1.17;0.90;;;;;;;5.55;100.00;102060.03;5012596;28;20456;-52
2021/12/19 01:01:46;;;;;;;0.20;0.10;;;;;;;5.64;100.00;102060.22;5013046;28;20457;-52
2021/12/19 01:04:16;;;;;;;0.20;0.10;;;;;;;5.70;100.00;102055.91;5012664;28;20483;-52
2021/12/19 01:06:44;;;;;;;0.20;0.10;;;;;;;5.74;100.00;102060.38;5012849;28;20488;-52
2021/12/19 01:09:11;;;;;;;0.20;0.10;;;;;;;5.58;100.00;102049.53;5014273;28;20523;-52
2021/12/19 01:11:39;;;;;;;0.20;0.20;;;;;;;5.55;100.00;102048.59;5012628;28;20480;-52
2021/12/19 01:14:07;;;;;;;0.20;0.10;;;;;;;5.54;100.00;102044.19;5012599;28;20801;-52
2021/12/19 01:16:34;;;;;;;0.20;0.10;;;;;;;5.59;100.00;102038.13;5012418;28;20519;-52
2021/12/19 01:19:01;;;;;;;0.20;0.20;;;;;;;5.58;100.00;102046.91;5012425;28;20510;-52
2021/12/19 01:21:27;;;;;;;0.20;0.10;;;;;;;5.72;100.00;102043.63;5012363;28;21028;-52
2021/12/19 01:23:54;;;;;;;0.20;0.20;;;;;;;5.82;100.00;102042.97;5012394;28;20456;-53
2021/12/19 01:26:21;;;;;;;0.20;0.10;;;;;;;5.83;100.00;102042.09;5011828;28;20484;-52
2021/12/19 01:28:48;;;;;;;0.20;0.10;;;;;;;6.04;100.00;102036.38;5011336;28;20835;-53
2021/12/19 01:31:15;;;;;;;0.20;0.10;;;;;;;6.02;100.00;102033.69;5012169;28;20457;-53
2021/12/19 01:33:42;;;;;;;0.20;0.10;;;;;;;6.13;100.00;102032.13;5012053;28;20464;-53
2021/12/19 01:36:08;;;;;;;0.20;0.10;;;;;;;6.19;100.00;102034.00;5012139;28;20519;-53
2021/12/19 01:38:35;;;;;;;0.20;0.20;;;;;;;6.23;100.00;102030.56;5011423;28;21024;-52
2021/12/19 01:41:03;;;;;;;0.20;0.20;;;;;;;6.08;100.00;102035.56;5012130;28;20510;-53
2021/12/19 01:43:31;;;;;;;0.20;0.13;;;;;;;6.23;100.00;102023.53;5012063;28;20457;-52
2021/12/19 01:45:58;;;;;;;0.30;0.20;;;;;;;6.19;100.00;102021.69;5011805;28;20503;-53
2021/12/19 01:48:25;;;;;;;0.20;0.20;;;;;;;6.20;100.00;102022.59;5012243;28;20452;-53
2021/12/19 01:50:53;;;;;;;0.20;0.20;;;;;;;6.20;100.00;102018.19;5011641;28;20453;-53
2021/12/19 01:53:20;;;;;;;0.20;0.20;;;;;;;6.24;100.00;102016.50;5011957;28;20799;-53
2021/12/19 01:55:48;;;;;;;0.20;0.20;;;;;;;6.18;100.00;102024.31;5011627;28;20504;-53
2021/12/19 01:58:16;;;;;;;0.20;0.20;;;;;;;6.22;100.00;102015.56;5011696;28;20452;-53
2021/12/19 02:00:47;;;;;;;0.40;0.40;;;;;;;6.17;100.00;102017.25;5011754;28;21036;-53
2021/12/19 02:03:15;;;;;;;0.20;0.10;;;;;;;6.10;100.00;102020.63;5011799;28;20799;-53
2021/12/19 02:05:42;;;;;;;0.50;0.50;;;;;;;6.07;100.00;102017.97;5011863;28;20572;-52
2021/12/19 02:08:10;;;;;;;0.20;0.20;;;;;;;6.17;100.00;102012.88;5011345;28;20457;-53
2021/12/19 02:10:38;;;;;;;0.20;0.17;;;;;;;6.17;100.00;102014.63;5011820;28;20453;-52
2021/12/19 02:13:06;;;;;;;0.50;0.47;;;;;;;6.19;100.00;102015.53;5011522;28;20795;-52
2021/12/19 02:15:35;;;;;;;0.20;0.20;;;;;;;6.15;100.00;102008.41;5011813;28;20504;-53
2021/12/19 02:18:07;;;;;;;0.20;0.13;;;;;;;6.17;100.00;102007.59;5011649;28;20544;-53
2021/12/19 02:20:37;;;;;;;0.20;0.13;;;;;;;6.21;100.00;102014.69;5011605;28;20499;-53
2021/12/19 02:23:05;;;;;;;0.20;0.20;;;;;;;6.16;100.00;101999.63;5011612;28;20460;-53
2021/12/19 02:25:33;;;;;;;0.20;0.10;;;;;;;6.26;100.00;101995.38;5011625;28;20884;-53
2021/12/19 02:28:00;;;;;;;0.20;0.10;;;;;;;6.13;100.00;102000.47;5011471;28;20522;-52
2021/12/19 02:30:27;;;;;;;0.20;0.20;;;;;;;6.20;100.00;101999.72;5011853;28;20456;-53
2021/12/19 02:32:54;;;;;;;0.23;0.20;;;;;;;6.07;100.00;102000.38;5011930;28;20452;-52
2021/12/19 02:35:26;;;;;;;0.20;0.10;;;;;;;6.18;100.00;101998.81;5011136;28;20511;-53
2021/12/19 02:40:35;;;;;;;0.20;0.10;;;;;;;6.18;100.00;101990.88;5014917;28;21036;-53
2021/12/19 02:48:35;;;;;;;0.20;0.20;;;;;;;6.28;100.00;101983.09;5014750;28;20452;-49
2021/12/19 02:51:03;;;;;;;0.50;0.50;;;;;;;6.31;100.00;101978.78;5015275;28;20452;-50
2021/12/19 02:53:35;;;;;;;0.20;0.10;;;;;;;6.26;100.00;101974.25;5014924;28;20452;-50
2021/12/19 02:56:07;;;;;;;0.20;0.10;;;;;;;6.29;100.00;101975.19;5013389;28;20468;-49
2021/12/19 02:58:35;;;;;;;0.20;0.20;;;;;;;6.25;100.00;101978.66;5014833;28;20511;-50
2021/12/19 03:01:06;;;;;;;0.20;0.20;;;;;;;6.26;100.00;101977.78;5014495;28;20453;-49
2021/12/19 03:03:33;;;;;;;0.20;0.20;;;;;;;6.27;100.00;101973.41;5014700;28;20506;-50
2021/12/19 03:06:00;;;;;;;0.20;0.10;;;;;;;6.21;100.00;101968.91;5014690;28;20474;-50
2021/12/19 03:08:28;;;;;;;0.20;0.20;;;;;;;6.20;100.00;101954.84;5014645;28;20456;-49
2021/12/19 03:19:24;;;;;;;0.20;0.20;;;;;;;6.23;100.00;101948.69;5014628;28;20466;-50
2021/12/19 03:21:51;;;;;;;0.30;0.20;;;;;;;6.16;100.00;101946.81;5014832;28;20449;-51
2021/12/19 03:24:17;;;;;;;0.40;0.40;;;;;;;6.20;100.00;101948.66;5014879;28;20848;-50
2021/12/19 03:26:44;;;;;;;0.20;0.20;;;;;;;6.26;100.00;101945.22;5014277;28;20539;-50
2021/12/19 03:29:10;;;;;;;0.30;0.10;;;;;;;6.30;100.00;101939.09;5014312;28;20521;-49
2021/12/19 03:31:37;;;;;;;0.20;0.10;;;;;;;6.27;100.00;101936.44;5014474;28;20448;-50
2021/12/19 03:34:04;;;;;;;0.20;0.10;;;;;;;6.34;100.00;101933.94;5013975;28;20507;-52
2021/12/19 03:36:31;;;;;;;0.27;0.20;;;;;;;6.37;100.00;101941.88;5013500;28;20546;-51
2021/12/19 03:39:00;;;;;;;0.20;0.10;;;;;;;6.37;100.00;101941.00;5013776;28;20452;-52
2021/12/19 03:41:34;;;;;;;0.97;0.97;;;;;;;6.31;100.00;101935.63;5014157;28;20518;-50
2021/12/19 03:44:03;;;;;;;0.20;0.20;;;;;;;6.32;100.00;101937.41;5014066;28;20453;-49
2021/12/19 03:46:30;;;;;;;0.20;0.10;;;;;;;6.35;100.00;101938.34;5013871;28;20558;-50
2021/12/19 03:48:57;;;;;;;0.20;0.10;;;;;;;6.42;100.00;101936.66;5013396;28;20511;-52
2021/12/19 03:51:24;;;;;;;0.20;0.20;;;;;;;6.15;100.00;101934.47;5012979;28;20556;-50
2021/12/19 03:53:51;;;;;;;1.57;1.40;;;;;;;5.99;100.00;101937.75;5014556;28;20456;-49
2021/12/19 03:56:18;;;;;;;0.20;0.20;;;;;;;6.04;100.00;101936.97;5025773;28;20498;-49
2021/12/19 03:58:44;;;;;;;0.20;0.20;;;;;;;5.94;100.00;101937.69;5015055;28;20449;-48
2021/12/19 04:01:11;;;;;;;0.30;0.20;;;;;;;6.20;100.00;101925.78;5015049;28;21571;-49
2021/12/19 04:03:38;;;;;;;0.20;0.10;;;;;;;5.98;100.00;101920.13;5015994;28;20938;-48
2021/12/19 04:06:05;;;;;;;0.20;0.20;;;;;;;5.96;100.00;101922.75;5016293;28;20477;-50
2021/12/19 04:08:32;;;;;;;0.20;0.20;;;;;;;6.06;100.00;101910.59;5014362;28;20506;-49
2021/12/19 04:10:58;;;;;;;0.20;0.10;;;;;;;6.09;100.00;101916.81;5013831;28;20495;-50
2021/12/19 04:13:25;;;;;;;0.20;0.17;;;;;;;6.08;100.00;101919.41;5006176;28;20506;-48
2021/12/19 04:15:52;;;;;;;0.30;0.27;;;;;;;6.22;100.00;101916.13;5013513;28;20500;-50
2021/12/19 04:18:20;;;;;;;0.20;0.20;;;;;;;6.27;100.00;101917.94;5012986;28;20452;-50
2021/12/19 04:20:47;;;;;;;0.20;0.10;;;;;;;6.18;100.00;101916.06;5013650;28;20452;-49
2021/12/19 04:23:14;;;;;;;0.30;0.20;;;;;;;6.13;100.00;101910.69;5013530;28;20457;-49
2021/12/19 04:25:41;;;;;;;0.20;0.10;;;;;;;6.15;100.00;101911.59;5013420;28;20508;-49
2021/12/19 04:28:07;;;;;;;0.20;0.10;;;;;;;6.30;100.00;101902.16;5013291;28;20519;-49
2021/12/19 04:30:35;;;;;;;0.20;0.20;;;;;;;6.23;100.00;101899.44;5018104;28;20873;-49
2021/12/19 04:33:05;;;;;;;0.20;0.10;;;;;;;6.34;100.00;101894.31;5013392;28;20868;-49
2021/12/19 04:35:35;;;;;;;0.20;0.10;;;;;;;6.46;100.00;101893.59;5012351;28;20491;-50
2021/12/19 04:40:42;;;;;;;0.20;0.13;;;;;;;6.52;100.00;101877.81;5012721;28;20453;-49
2021/12/19 04:54:22;;;;;;;0.20;0.20;;;;;;;6.55;100.00;101867.28;5012637;28;21081;-51
2021/12/19 04:59:48;;;;;;;0.20;0.20;;;;;;;6.67;100.00;101869.22;5012782;28;20508;-50
2021/12/19 05:15:34;;;;;;;0.30;0.10;;;;;;;6.60;100.00;101839.19;5012136;28;20508;-51
2021/12/19 05:18:05;;;;;;;0.20;0.10;;;;;;;6.58;100.00;101840.03;5012462;28;20487;-51
2021/12/19 05:20:33;;;;;;;0.20;0.13;;;;;;;6.59;100.00;101837.44;5012231;28;20463;-53
2021/12/19 05:23:20;;;;;;;0.20;0.13;;;;;;;6.65;100.00;101836.59;5012350;28;20877;-51
2021/12/19 05:25:47;;;;;;;0.20;0.20;;;;;;;6.58;100.00;101840.03;5012803;28;20469;-52
2021/12/19 05:28:14;;;;;;;0.20;0.20;;;;;;;6.57;100.00;101831.22;5012710;28;20485;-52
2021/12/19 05:30:40;;;;;;;0.20;0.20;;;;;;;6.48;100.00;101839.94;5012676;28;21005;-51
2021/12/19 05:33:07;;;;;;;0.20;0.20;;;;;;;6.55;100.00;101832.94;5012471;28;20517;-51
2021/12/19 05:46:38;;;;;;;0.20;0.20;;;;;;;6.61;100.00;101824.22;5012451;28;20464;-52
2021/12/19 05:49:06;;;;;;;0.20;0.20;;;;;;;6.55;100.00;101817.09;5012501;28;20965;-51
2021/12/19 05:51:35;;;;;;;0.20;0.20;;;;;;;6.49;100.00;101809.13;5012339;28;20543;-50
2021/12/19 05:54:02;;;;;;;0.20;0.10;;;;;;;6.41;100.00;101805.47;5011485;28;20449;-52
2021/12/19 05:56:29;;;;;;;0.20;0.10;;;;;;;6.51;100.00;101812.66;5011994;28;20554;-52
2021/12/19 05:58:55;;;;;;;0.20;0.20;;;;;;;6.35;100.00;101818.63;5010913;28;20495;-50
2021/12/19 06:01:22;;;;;;;0.20;0.20;;;;;;;6.34;100.00;101815.09;5010643;28;20499;-51
2021/12/19 06:03:49;;;;;;;0.20;0.10;;;;;;;6.46;100.00;101822.28;5011382;28;20445;-51
2021/12/19 06:06:15;;;;;;;0.20;0.10;;;;;;;6.38;100.00;101819.53;5011103;28;20579;-51
2021/12/19 06:08:42;;;;;;;0.20;0.20;;;;;;;6.40;100.00;101817.78;5011073;28;20535;-51
2021/12/19 06:11:10;;;;;;;0.20;0.20;;;;;;;6.48;100.00;101812.63;5011644;28;20453;-51
2021/12/19 06:13:38;;;;;;;0.20;0.20;;;;;;;6.53;100.00;101808.28;5013474;28;20502;-50
2021/12/19 06:16:07;;;;;;;0.20;0.20;;;;;;;6.49;100.00;101803.84;5014965;28;20476;-51
2021/12/19 06:18:33;;;;;;;0.50;0.50;;;;;;;6.53;100.00;101801.22;5014403;28;20878;-50
2021/12/19 06:21:02;;;;;;;0.37;0.37;;;;;;;6.53;100.00;101801.22;5015041;28;20506;-51
2021/12/19 06:23:29;;;;;;;0.20;0.20;;;;;;;6.50;100.00;101793.28;5015331;28;20456;-52
2021/12/19 06:25:56;;;;;;;0.20;0.20;;;;;;;6.51;100.00;101799.44;5014850;28;20527;-50
2021/12/19 06:28:22;;;;;;;0.20;0.10;;;;;;;6.50;100.00;101800.31;5014748;28;20997;-52
2021/12/19 06:30:49;;;;;;;0.20;0.20;;;;;;;6.53;100.00;101795.06;5014938;28;20452;-50
2021/12/19 06:33:16;;;;;;;0.20;0.20;;;;;;;6.52;100.00;101786.25;5014823;28;20449;-51
2021/12/19 06:35:43;;;;;;;0.20;0.20;;;;;;;6.47;100.00;101781.81;5013564;28;20499;-50
2021/12/19 06:38:12;;;;;;;0.20;0.20;;;;;;;6.53;100.00;101782.75;5015681;28;20503;-53
2021/12/19 06:40:39;;;;;;;0.20;0.20;;;;;;;6.58;100.00;101788.09;5015564;28;20954;-51
2021/12/19 06:43:07;;;;;;;0.53;0.53;;;;;;;6.54;100.00;101792.44;5015421;28;20448;-50
2021/12/19 06:45:34;;;;;;;0.20;0.13;;;;;;;6.45;100.00;101789.72;5015454;28;20472;-50
2021/12/19 06:48:00;;;;;;;0.20;0.20;;;;;;;6.51;100.00;101792.41;5015446;28;20515;-50
2021/12/19 06:50:28;;;;;;;0.20;0.20;;;;;;;6.55;100.00;101777.47;5014762;28;20487;-50
2021/12/19 06:52:54;;;;;;;0.20;0.10;;;;;;;6.53;100.00;101788.03;5014402;28;20973;-50
2021/12/19 06:55:21;;;;;;;0.20;0.20;;;;;;;6.52;100.00;101786.25;5015130;28;21023;-50
2021/12/19 06:57:48;;;;;;;0.20;0.10;;;;;;;6.52;100.00;101790.66;5015348;28;20499;-50
2021/12/19 07:00:19;;;;;;;0.53;0.53;;;;;;;6.58;100.00;101782.81;5015102;28;20516;-51
2021/12/19 07:02:46;;;;;;;0.20;0.17;;;;;;;6.61;100.00;101788.13;5011270;28;20449;-50
2021/12/19 07:05:13;;;;;;;0.20;0.20;;;;;;;6.60;100.00;101783.72;5014541;28;20484;-50
2021/12/19 07:07:40;;;;;;;0.20;0.17;;;;;;;6.64;100.00;101774.94;5014714;28;20550;-50
2021/12/19 07:10:08;;;;;;;0.20;0.20;;;;;;;6.53;100.00;101785.38;5014644;28;20452;-52
2021/12/19 07:12:34;;;;;;;0.20;0.20;;;;;;;6.52;100.00;101782.72;5014695;28;20790;-49
2021/12/19 07:15:02;;;;;;;0.20;0.10;;;;;;;6.59;100.00;101778.44;5014215;28;20479;-50
2021/12/19 07:17:29;;;;;;;0.20;0.20;;;;;;;6.61;100.00;101793.41;5010689;28;20445;-50
2021/12/19 07:19:56;;;;;;;0.20;0.20;;;;;;;6.48;100.00;101787.09;5014685;28;20526;-50
2021/12/19 07:22:23;;;;;;;0.20;0.20;;;;;;;6.57;100.00;101781.03;5014282;28;20461;-51
2021/12/19 07:24:50;;;;;;;0.20;0.20;;;;;;;6.62;100.00;101781.97;5013422;28;20531;-51
2021/12/19 07:27:17;;;;;;;0.20;0.20;;;;;;;6.63;100.00;101769.66;5014184;28;20484;-50
2021/12/19 07:29:44;;;;;;;0.53;0.53;;;;;;;6.59;100.00;101781.94;5013604;28;20449;-55
2021/12/19 07:32:11;;;;;;;1.80;0.97;;;;;;;6.53;100.00;101787.16;5013806;28;21023;-50
2021/12/19 07:34:38;;;;;;;0.30;0.30;;;;;;;6.45;100.00;101781.78;5013832;28;21072;-50
2021/12/19 07:37:05;;;;;;;0.20;0.20;;;;;;;6.51;100.00;101779.19;5014080;28;20511;-49
2021/12/19 07:42:00;;;;;;;0.20;0.20;;;;;;;6.44;100.00;101776.44;5014487;28;20973;-53
2021/12/19 07:44:26;;;;;;;0.20;0.20;;;;;;;6.43;100.00;101774.69;5013408;28;21009;-50
2021/12/19 07:46:53;;;;;;;0.20;0.20;;;;;;;6.54;100.00;101775.72;5014063;28;20453;-50
2021/12/19 07:49:20;;;;;;;0.20;0.20;;;;;;;6.54;100.00;101770.41;5013795;28;20550;-50
2021/12/19 07:51:46;;;;;;;0.20;0.17;;;;;;;6.58;100.00;101766.06;5013978;28;21024;-50
2021/12/19 07:54:13;;;;;;;0.20;0.20;;;;;;;6.84;100.00;101762.81;5014525;28;20445;-50
2021/12/19 07:56:39;;;;;;;0.30;0.20;;;;;;;6.92;100.00;101764.69;5014022;28;20933;-50
2021/12/19 07:59:07;;;;;;;0.20;0.10;;;;;;;7.23;100.00;101753.50;5014285;28;20448;-52
2021/12/19 08:01:34;;;;;;;0.20;0.20;;;;;;;7.21;100.00;101754.38;5013990;28;20488;-49
2021/12/19 08:04:00;;;;;;;0.20;0.20;;;;;;;7.15;100.00;101767.56;5014226;28;20499;-50
2021/12/19 08:06:28;;;;;;;1.80;1.80;;;;;;;7.22;100.00;101757.03;5013665;28;20483;-50
2021/12/19 08:08:57;;;;;;;0.20;0.10;;;;;;;7.23;100.00;101765.84;5014148;28;20491;-50
2021/12/19 08:11:40;;;;;;;0.20;0.10;;;;;;;7.56;100.00;101752.03;5013903;28;20456;-50
2021/12/19 08:14:09;;;;;;;0.20;0.10;;;;;;;7.26;100.00;101760.56;5013910;28;20445;-51
2021/12/19 08:16:36;;;;;;;0.30;0.10;;;;;;;7.08;100.00;101748.97;5013796;28;20503;-52
2021/12/19 08:19:04;;;;;;;0.33;0.30;;;;;;;7.26;100.00;101745.59;5013563;28;20499;-49
2021/12/19 08:21:31;;;;;;;0.20;0.20;;;;;;;7.53;100.00;101742.28;5012557;28;20819;-49
2021/12/19 08:24:01;;;;;;;0.20;0.20;;;;;;;7.51;100.00;101749.34;5013350;28;21008;-50
2021/12/19 08:26:29;;;;;;;0.20;0.10;;;;;;;7.31;100.00;101735.97;5013709;28;20483;-50
2021/12/19 08:29:01;;;;;;;0.23;0.17;;;;;;;7.50;100.00;101736.97;5013460;28;20481;-49
2021/12/19 08:31:28;;;;;;;0.20;0.20;;;;;;;7.58;100.00;101739.69;5013256;28;20464;-51
2021/12/19 08:33:54;;;;;;;0.20;0.20;;;;;;;7.48;100.00;101744.03;5012347;28;20457;-50
2021/12/19 08:36:22;;;;;;;0.30;0.20;;;;;;;7.65;100.00;101734.44;5012320;28;20506;-50
2021/12/19 08:38:48;;;;;;;1.03;1.03;;;;;;;7.88;100.00;101731.06;5012428;28;20898;-50
2021/12/19 08:41:15;;;;;;;0.60;0.60;;;;;;;7.97;100.00;101724.06;5012874;28;20491;-50
2021/12/19 08:43:42;;;;;;;0.30;0.20;;;;;;;7.78;100.00;101726.56;5012383;28;20465;-50
2021/12/19 08:46:11;;;;;;;0.20;0.20;;;;;;;8.01;100.00;101728.47;5012714;28;20894;-49
2021/12/19 08:48:38;;;;;;;0.30;0.20;;;;;;;7.95;100.00;101730.22;5012494;28;20538;-49
2021/12/19 08:51:06;;;;;;;0.30;0.20;;;;;;;7.94;100.00;101729.31;5012765;28;20461;-52
2021/12/19 08:53:32;;;;;;;0.30;0.20;;;;;;;7.83;100.00;101738.09;5012692;28;20492;-50
2021/12/19 08:55:59;;;;;;;0.30;0.20;;;;;;;7.91;100.00;101728.41;5012189;28;20473;-50
2021/12/19 08:58:28;;;;;;;0.30;0.20;;;;;;;8.03;100.00;101732.03;5012421;28;20445;-50
2021/12/19 09:01:00;;;;;;;0.30;0.20;;;;;;;7.98;100.00;101730.25;5012067;28;20503;-50
2021/12/19 09:03:30;;;;;;;0.30;0.20;;;;;;;8.05;100.00;101723.19;5012501;28;20460;-50
2021/12/19 09:05:57;;;;;;;0.30;0.20;;;;;;;8.15;100.00;101714.41;5011774;28;20469;-50
2021/12/19 09:08:24;;;;;;;0.30;0.20;;;;;;;7.89;100.00;101716.94;5011904;28;20557;-49
2021/12/19 09:10:52;;;;;;;0.30;0.20;;;;;;;8.19;100.00;101706.47;5013183;28;20500;-50
2021/12/19 09:13:19;;;;;;;0.30;0.20;;;;;;;8.00;100.00;101713.47;5012668;28;20489;-50
2021/12/19 09:15:46;;;;;;;0.50;0.50;;;;;;;8.02;100.00;101705.53;5012220;28;20885;-50
2021/12/19 09:18:13;;;;;;;0.30;0.20;;;;;;;8.12;100.00;101701.19;5009034;28;20493;-51
2021/12/19 09:20:39;;;;;;;0.83;0.83;;;;;;;8.09;100.00;101714.41;5012369;28;20465;-50
2021/12/19 09:23:06;;;;;;;0.43;0.40;;;;;;;8.17;100.00;101707.38;5012077;28;20452;-50
2021/12/19 09:25:35;;;;;;;0.30;0.20;;;;;;;8.11;100.00;101708.25;5011804;28;20546;-50
2021/12/19 09:28:01;;;;;;;0.30;0.20;;;;;;;8.18;100.00;101712.66;5011834;28;20546;-50
2021/12/19 09:30:28;;;;;;;0.30;0.20;;;;;;;7.98;100.00;101704.66;5018508;28;20461;-50
2021/12/19 09:32:55;;;;;;;0.87;0.87;;;;;;;7.91;100.00;101696.66;5012282;28;20451;-49
2021/12/19 09:35:22;;;;;;;0.30;0.20;;;;;;;7.85;100.00;101710.75;5011908;28;20522;-49
2021/12/19 09:37:49;;;;;;;0.30;0.20;;;;;;;7.82;100.00;101699.28;5012062;28;20488;-50
2021/12/19 09:40:22;;;;;;;0.40;0.40;;;;;;;7.92;100.00;101701.06;5011844;28;20546;-50
2021/12/19 09:42:59;;;;;;;0.30;0.20;;;;;;;7.93;100.00;101709.00;5007502;28;20453;-51
2021/12/19 09:45:26;;;;;;;0.30;0.20;;;;;;;8.07;100.00;101698.47;5012813;28;20472;-51
2021/12/19 09:47:53;;;;;;;0.30;0.20;;;;;;;7.98;100.00;101695.81;5012782;28;20464;-50
2021/12/19 09:50:21;;;;;;;0.30;0.20;;;;;;;7.83;100.00;101691.34;5016371;28;20460;-48
2021/12/19 09:52:49;;;;;;;0.30;0.17;;;;;;;7.87;100.00;101700.16;5015613;28;20873;-50
2021/12/19 09:55:21;;;;;;;0.30;0.20;;;;;;;8.28;100.00;101687.09;5016164;28;20476;-54
2021/12/19 09:57:50;;;;;;;0.30;0.20;;;;;;;8.43;100.00;101695.13;5015204;28;20489;-53
2021/12/19 10:00:17;;;;;;;0.30;0.20;;;;;;;8.11;100.00;101688.81;5016018;28;20459;-54
2021/12/19 10:02:44;;;;;;;0.30;0.20;;;;;;;8.20;100.00;101688.81;5015337;28;20460;-53
2021/12/19 10:05:17;;;;;;;0.30;0.20;;;;;;;8.13;100.00;101681.75;5015443;28;20476;-53
2021/12/19 10:07:55;;;;;;;0.30;0.20;;;;;;;8.11;100.00;101678.22;5015237;28;20507;-54
2021/12/19 10:10:45;;;;;;;0.30;0.20;;;;;;;8.24;100.00;101680.91;5015655;28;20934;-54
2021/12/19 10:13:13;;;;;;;0.30;0.20;;;;;;;8.16;100.00;101679.13;5015501;28;20496;-53
2021/12/19 10:16:32;;;;;;;0.30;0.20;;;;;;;8.17;100.00;101672.94;5097243;27;20584;-53
2021/12/19 10:19:00;;;;;;;0.30;0.20;;;;;;;8.11;100.00;101676.47;5093336;28;20453;-53
2021/12/19 10:21:30;;;;;;;0.40;0.37;;;;;;;8.02;100.00;101664.06;5096348;28;20487;-53
2021/12/19 10:24:00;;;;;;;0.30;0.20;;;;;;;7.95;100.00;101654.34;5091127;28;20449;-54
2021/12/19 10:26:49;;;;;;;0.30;0.20;;;;;;;8.15;100.00;101653.50;5088505;28;20476;-54
2021/12/19 10:29:19;;;;;;;0.30;0.20;;;;;;;8.02;100.00;101656.09;5083996;28;20810;-54
2021/12/19 10:32:02;;;;;;;0.30;0.20;;;;;;;7.99;100.00;101658.75;5088372;28;20514;-54
2021/12/19 10:34:29;;;;;;;0.30;0.20;;;;;;;8.05;100.00;101649.06;5088841;28;20481;-54
2021/12/19 10:36:56;;;;;;;0.30;0.20;;;;;;;8.17;100.00;101646.44;5094374;28;20453;-53
2021/12/19 10:39:24;;;;;;;0.30;0.20;;;;;;;8.11;100.00;101639.38;5088503;28;20449;-53
2021/12/19 10:41:59;;;;;;;0.30;0.20;;;;;;;8.19;100.00;101636.75;5086693;28;20461;-54
2021/12/19 10:47:27;;;;;;;0.30;0.20;;;;;;;8.37;100.00;101633.31;5088727;28;20676;-53
2021/12/19 10:49:54;;;;;;;0.30;0.20;;;;;;;8.35;100.00;101633.28;5088334;28;20471;-53
2021/12/19 10:52:35;;;;;;;0.30;0.20;;;;;;;8.19;100.00;101624.38;5089688;28;20491;-53
2021/12/19 10:55:10;;;;;;;0.40;0.40;;;;;;;8.18;100.00;101617.31;5089431;28;20520;-53
2021/12/19 10:57:38;;;;;;;0.30;0.30;;;;;;;8.08;100.00;101617.28;5088781;28;20489;-53
2021/12/19 11:00:10;;;;;;;0.30;0.20;;;;;;;8.26;100.00;101615.59;5090122;28;20454;-54
2021/12/19 11:02:43;;;;;;;0.30;0.20;;;;;;;8.26;100.00;101614.69;5089183;28;20485;-54
2021/12/19 11:05:36;;;;;;;0.30;0.20;;;;;;;8.47;100.00;101601.50;5088776;28;20556;-54
2021/12/19 11:08:08;;;;;;;0.30;0.20;;;;;;;8.45;100.00;101595.31;5090475;28;20477;-53
2021/12/19 11:10:37;;;;;;;0.30;0.20;;;;;;;8.69;100.00;101582.97;5088545;28;20739;-53
2021/12/19 11:13:13;;;;;;;0.30;0.20;;;;;;;8.65;100.00;101586.53;5088223;28;20461;-52
2021/12/19 11:15:41;;;;;;;0.30;0.20;;;;;;;8.92;100.00;101570.59;5087816;28;20994;-53
2021/12/19 11:18:09;;;;;;;0.30;0.20;;;;;;;8.93;100.00;101569.72;5087729;28;20445;-54
2021/12/19 11:20:36;;;;;;;0.30;0.20;;;;;;;8.64;100.00;101567.09;5087982;28;20449;-54
2021/12/19 11:23:03;;;;;;;0.30;0.20;;;;;;;8.83;100.00;101562.66;5087648;28;20863;-53
2021/12/19 11:25:29;;;;;;;0.30;0.20;;;;;;;8.89;100.00;101563.50;5088015;28;20483;-53
2021/12/19 11:27:59;;;;;;;0.30;0.20;;;;;;;8.81;100.00;101548.53;5074492;28;20515;-54
2021/12/19 11:30:26;;;;;;;0.30;0.20;;;;;;;8.93;100.00;101540.56;5072430;28;20457;-54
2021/12/19 11:33:17;;;;;;;0.30;0.20;;;;;;;8.81;100.00;101536.16;5077006;28;20434;-54
2021/12/19 11:35:46;;;;;;;0.30;0.20;;;;;;;9.03;100.00;101529.00;5069327;28;20485;-53
2021/12/19 11:38:19;;;;;;;0.30;0.20;;;;;;;8.90;100.00;101530.81;5073326;28;20449;-54
2021/12/19 11:40:46;;;;;;;0.30;0.20;;;;;;;8.91;100.00;101523.78;5079739;28;20482;-53
2021/12/19 11:43:13;;;;;;;0.30;0.20;;;;;;;8.84;100.00;101517.56;5073703;28;20458;-53
2021/12/19 11:45:53;;;;;;;0.30;0.20;;;;;;;8.81;100.00;101517.59;5073946;28;20469;-54
2021/12/19 11:48:28;;;;;;;0.30;0.20;;;;;;;8.84;100.00;101504.31;5077788;28;20450;-54
2021/12/19 11:50:58;;;;;;;0.30;0.20;;;;;;;8.90;100.00;101504.28;5081694;28;20899;-53
2021/12/19 11:53:31;;;;;;;0.30;0.20;;;;;;;9.05;100.00;101503.41;5077007;28;20967;-54
2021/12/19 11:56:11;;;;;;;0.40;0.40;;;;;;;9.23;98.89;101501.56;5080839;28;20490;-54
2021/12/19 11:58:42;;;;;;;0.30;0.20;;;;;;;8.92;100.00;101491.06;5070782;28;20449;-54
2021/12/19 12:01:40;;;;;;;0.30;0.20;;;;;;;8.97;99.84;101489.25;5071436;28;20460;-54
2021/12/19 12:04:14;;;;;;;0.30;0.20;;;;;;;8.96;100.00;101486.63;5070396;28;20461;-53
2021/12/19 12:06:52;;;;;;;0.30;0.20;;;;;;;9.08;100.00;101482.16;5074502;28;20525;-54
2021/12/19 12:09:23;;;;;;;0.30;0.20;;;;;;;8.96;100.00;101482.19;5079841;28;20445;-54
2021/12/19 12:12:07;;;;;;;0.30;0.20;;;;;;;9.11;100.00;101470.66;5081113;28;20499;-53
2021/12/19 12:14:41;;;;;;;0.30;0.20;;;;;;;9.09;100.00;101469.78;5074532;28;20535;-54
2021/12/19 12:17:19;;;;;;;0.30;0.20;;;;;;;9.23;99.59;101472.38;5074323;28;20942;-54
2021/12/19 12:19:57;;;;;;;0.30;0.20;;;;;;;8.98;98.76;101466.28;5080534;28;20449;-53
2021/12/19 12:22:36;;;;;;;0.30;0.20;;;;;;;9.15;99.25;101461.78;5079188;28;20457;-53
2021/12/19 12:25:03;;;;;;;0.30;0.20;;;;;;;9.17;99.33;101454.69;5088774;28;20881;-53
2021/12/19 12:27:36;;;;;;;0.30;0.20;;;;;;;9.37;98.88;101452.88;5077849;28;20449;-53
2021/12/19 12:30:07;;;;;;;0.30;0.20;;;;;;;9.06;99.40;101449.47;5077463;28;20446;-52
2021/12/19 12:32:34;;;;;;;0.30;0.20;;;;;;;9.06;99.80;101440.63;5080287;28;20458;-54
2021/12/19 12:35:01;;;;;;;0.57;0.57;;;;;;;8.95;100.00;101443.31;5078056;28;20546;-54
2021/12/19 12:37:28;;;;;;;0.30;0.20;;;;;;;9.24;100.00;101443.19;5085957;28;20457;-54
2021/12/19 12:40:27;;;;;;;0.30;0.20;;;;;;;9.32;99.83;101441.41;5078197;28;20453;-53
2021/12/19 12:43:12;;;;;;;1.13;1.13;;;;;;;9.13;99.34;101432.63;5073879;28;20989;-54
2021/12/19 12:45:50;;;;;;;0.30;0.20;;;;;;;8.89;100.00;101422.09;5075996;28;20526;-54
2021/12/19 12:48:49;;;;;;;0.30;0.20;;;;;;;9.01;99.37;101422.06;5076976;28;20942;-54